sensor_id;sensor_type;location;lat;lon;timestamp;P1;durP1;ratioP1;P2;durP2;ratioP2
22415;SDS011;12204;50.600;4.608;2023-06-22T00:00:58;6.93;;;2.58;;
22415;SDS011;12204;50.600;4.608;2023-06-22T00:06:02;7.10;;;2.40;;
22415;SDS011;12204;50.600;4.608;2023-06-22T00:11:07;6.47;;;2.35;;
22415;SDS011;12204;50.600;4.608;2023-06-22T00:16:10;7.00;;;2.40;;
22415;SDS011;12204;50.600;4.608;2023-06-22T00:21:14;7.25;;;2.45;;
22415;SDS011;12204;50.600;4.608;2023-06-22T00:26:19;6.38;;;2.45;;
22415;SDS011;12204;50.600;4.608;2023-06-22T00:31:23;5.45;;;2.35;;
22415;SDS011;12204;50.600;4.608;2023-06-22T00:36:28;7.90;;;2.40;;
22415;SDS011;12204;50.600;4.608;2023-06-22T00:41:33;8.65;;;2.40;;
22415;SDS011;12204;50.600;4.608;2023-06-22T00:46:38;5.53;;;2.30;;
22415;SDS011;12204;50.600;4.608;2023-06-22T00:51:41;6.40;;;2.28;;
22415;SDS011;12204;50.600;4.608;2023-06-22T00:56:48;5.35;;;2.25;;
22415;SDS011;12204;50.600;4.608;2023-06-22T01:01:54;5.97;;;2.30;;
22415;SDS011;12204;50.600;4.608;2023-06-22T01:07:03;5.38;;;2.47;;
22415;SDS011;12204;50.600;4.608;2023-06-22T01:12:17;5.93;;;2.45;;
22415;SDS011;12204;50.600;4.608;2023-06-22T01:17:22;6.03;;;2.10;;
22415;SDS011;12204;50.600;4.608;2023-06-22T01:22:28;4.85;;;2.13;;
22415;SDS011;12204;50.600;4.608;2023-06-22T01:27:39;5.45;;;2.08;;
22415;SDS011;12204;50.600;4.608;2023-06-22T01:32:56;5.60;;;2.25;;
22415;SDS011;12204;50.600;4.608;2023-06-22T01:38:03;5.75;;;2.30;;
22415;SDS011;12204;50.600;4.608;2023-06-22T01:43:08;8.10;;;2.30;;
22415;SDS011;12204;50.600;4.608;2023-06-22T01:48:13;7.50;;;2.50;;
22415;SDS011;12204;50.600;4.608;2023-06-22T01:53:16;6.93;;;2.05;;
22415;SDS011;12204;50.600;4.608;2023-06-22T01:58:20;6.75;;;2.08;;
22415;SDS011;12204;50.600;4.608;2023-06-22T02:03:30;5.55;;;2.15;;
22415;SDS011;12204;50.600;4.608;2023-06-22T02:08:40;5.15;;;2.30;;
22415;SDS011;12204;50.600;4.608;2023-06-22T02:13:50;6.13;;;2.30;;
22415;SDS011;12204;50.600;4.608;2023-06-22T02:18:56;5.43;;;2.28;;
22415;SDS011;12204;50.600;4.608;2023-06-22T02:24:07;7.45;;;2.35;;
22415;SDS011;12204;50.600;4.608;2023-06-22T02:29:11;6.50;;;2.03;;
22415;SDS011;12204;50.600;4.608;2023-06-22T02:34:18;5.50;;;2.17;;
22415;SDS011;12204;50.600;4.608;2023-06-22T02:39:21;8.52;;;2.30;;
22415;SDS011;12204;50.600;4.608;2023-06-22T02:44:26;7.05;;;2.20;;
22415;SDS011;12204;50.600;4.608;2023-06-22T02:49:31;5.95;;;2.28;;
22415;SDS011;12204;50.600;4.608;2023-06-22T02:54:35;7.25;;;2.40;;
22415;SDS011;12204;50.600;4.608;2023-06-22T02:59:38;4.60;;;2.08;;
22415;SDS011;12204;50.600;4.608;2023-06-22T03:04:45;9.10;;;2.40;;
22415;SDS011;12204;50.600;4.608;2023-06-22T03:09:50;6.30;;;2.20;;
22415;SDS011;12204;50.600;4.608;2023-06-22T03:14:54;5.75;;;2.15;;
22415;SDS011;12204;50.600;4.608;2023-06-22T03:19:58;4.38;;;2.25;;
22415;SDS011;12204;50.600;4.608;2023-06-22T03:25:02;5.80;;;2.30;;
22415;SDS011;12204;50.600;4.608;2023-06-22T03:30:13;4.25;;;1.90;;
22415;SDS011;12204;50.600;4.608;2023-06-22T03:35:18;6.28;;;2.00;;
22415;SDS011;12204;50.600;4.608;2023-06-22T03:40:23;4.63;;;2.10;;
22415;SDS011;12204;50.600;4.608;2023-06-22T03:45:26;5.30;;;2.10;;
22415;SDS011;12204;50.600;4.608;2023-06-22T03:50:31;4.18;;;1.92;;
22415;SDS011;12204;50.600;4.608;2023-06-22T03:55:35;4.88;;;2.25;;
22415;SDS011;12204;50.600;4.608;2023-06-22T04:00:39;7.10;;;2.10;;
22415;SDS011;12204;50.600;4.608;2023-06-22T04:05:44;6.22;;;2.40;;
22415;SDS011;12204;50.600;4.608;2023-06-22T04:10:47;7.22;;;2.30;;
22415;SDS011;12204;50.600;4.608;2023-06-22T04:15:51;7.22;;;3.15;;
22415;SDS011;12204;50.600;4.608;2023-06-22T04:20:56;6.95;;;2.88;;
22415;SDS011;12204;50.600;4.608;2023-06-22T04:25:59;6.57;;;2.95;;
22415;SDS011;12204;50.600;4.608;2023-06-22T04:31:03;7.35;;;3.17;;
22415;SDS011;12204;50.600;4.608;2023-06-22T04:36:08;7.00;;;3.20;;
22415;SDS011;12204;50.600;4.608;2023-06-22T04:41:14;8.10;;;2.90;;
22415;SDS011;12204;50.600;4.608;2023-06-22T04:46:25;7.47;;;2.70;;
22415;SDS011;12204;50.600;4.608;2023-06-22T04:51:30;7.68;;;2.90;;
22415;SDS011;12204;50.600;4.608;2023-06-22T04:56:33;7.22;;;2.95;;
22415;SDS011;12204;50.600;4.608;2023-06-22T05:01:37;6.30;;;2.70;;
22415;SDS011;12204;50.600;4.608;2023-06-22T05:06:42;6.72;;;2.88;;
22415;SDS011;12204;50.600;4.608;2023-06-22T05:11:46;8.18;;;3.13;;
22415;SDS011;12204;50.600;4.608;2023-06-22T05:16:50;7.40;;;3.08;;
22415;SDS011;12204;50.600;4.608;2023-06-22T05:21:55;8.38;;;3.40;;
22415;SDS011;12204;50.600;4.608;2023-06-22T05:26:59;9.90;;;3.10;;
22415;SDS011;12204;50.600;4.608;2023-06-22T05:32:02;8.45;;;3.22;;
22415;SDS011;12204;50.600;4.608;2023-06-22T05:37:10;10.13;;;3.58;;
22415;SDS011;12204;50.600;4.608;2023-06-22T05:42:14;12.77;;;3.70;;
22415;SDS011;12204;50.600;4.608;2023-06-22T05:47:17;10.60;;;4.00;;
22415;SDS011;12204;50.600;4.608;2023-06-22T05:52:22;10.95;;;4.07;;
22415;SDS011;12204;50.600;4.608;2023-06-22T05:57:26;9.50;;;4.25;;
22415;SDS011;12204;50.600;4.608;2023-06-22T06:02:29;9.70;;;4.10;;
22415;SDS011;12204;50.600;4.608;2023-06-22T06:07:34;9.90;;;4.35;;
22415;SDS011;12204;50.600;4.608;2023-06-22T06:12:38;11.18;;;4.50;;
22415;SDS011;12204;50.600;4.608;2023-06-22T06:17:45;11.88;;;5.40;;
22415;SDS011;12204;50.600;4.608;2023-06-22T06:22:51;10.95;;;5.05;;
22415;SDS011;12204;50.600;4.608;2023-06-22T06:27:55;9.73;;;5.22;;
22415;SDS011;12204;50.600;4.608;2023-06-22T06:32:58;12.02;;;5.50;;
22415;SDS011;12204;50.600;4.608;2023-06-22T06:38:03;10.73;;;5.28;;
22415;SDS011;12204;50.600;4.608;2023-06-22T06:43:07;9.52;;;5.25;;
22415;SDS011;12204;50.600;4.608;2023-06-22T06:48:10;9.10;;;5.32;;
22415;SDS011;12204;50.600;4.608;2023-06-22T06:53:15;11.63;;;6.10;;
22415;SDS011;12204;50.600;4.608;2023-06-22T06:58:19;12.68;;;5.88;;
22415;SDS011;12204;50.600;4.608;2023-06-22T07:03:24;11.15;;;6.18;;
22415;SDS011;12204;50.600;4.608;2023-06-22T07:08:29;18.92;;;6.10;;
22415;SDS011;12204;50.600;4.608;2023-06-22T07:13:32;17.10;;;5.80;;
22415;SDS011;12204;50.600;4.608;2023-06-22T07:18:35;15.65;;;5.45;;
22415;SDS011;12204;50.600;4.608;2023-06-22T07:23:40;12.73;;;5.10;;
22415;SDS011;12204;50.600;4.608;2023-06-22T07:28:44;12.45;;;5.80;;
22415;SDS011;12204;50.600;4.608;2023-06-22T07:33:47;9.05;;;4.88;;
22415;SDS011;12204;50.600;4.608;2023-06-22T07:38:52;9.77;;;4.63;;
22415;SDS011;12204;50.600;4.608;2023-06-22T07:43:55;8.98;;;4.47;;
22415;SDS011;12204;50.600;4.608;2023-06-22T07:48:59;15.23;;;5.13;;
22415;SDS011;12204;50.600;4.608;2023-06-22T07:54:05;19.55;;;4.93;;
22415;SDS011;12204;50.600;4.608;2023-06-22T07:59:09;14.45;;;4.90;;
22415;SDS011;12204;50.600;4.608;2023-06-22T08:04:12;12.68;;;4.70;;
22415;SDS011;12204;50.600;4.608;2023-06-22T08:09:17;11.20;;;4.03;;
22415;SDS011;12204;50.600;4.608;2023-06-22T08:14:21;9.85;;;3.80;;
22415;SDS011;12204;50.600;4.608;2023-06-22T08:19:24;11.68;;;3.83;;
22415;SDS011;12204;50.600;4.608;2023-06-22T08:24:29;13.27;;;4.03;;
22415;SDS011;12204;50.600;4.608;2023-06-22T08:29:34;9.60;;;3.88;;
22415;SDS011;12204;50.600;4.608;2023-06-22T08:34:37;10.25;;;4.10;;
22415;SDS011;12204;50.600;4.608;2023-06-22T08:39:44;11.38;;;4.25;;
22415;SDS011;12204;50.600;4.608;2023-06-22T08:44:48;8.02;;;3.78;;
22415;SDS011;12204;50.600;4.608;2023-06-22T08:49:52;13.48;;;4.00;;
22415;SDS011;12204;50.600;4.608;2023-06-22T08:54:57;10.15;;;4.50;;
22415;SDS011;12204;50.600;4.608;2023-06-22T09:00:01;8.95;;;3.97;;
22415;SDS011;12204;50.600;4.608;2023-06-22T09:05:09;10.32;;;4.30;;
22415;SDS011;12204;50.600;4.608;2023-06-22T09:10:14;10.60;;;4.50;;
22415;SDS011;12204;50.600;4.608;2023-06-22T09:15:18;10.95;;;4.25;;
22415;SDS011;12204;50.600;4.608;2023-06-22T09:20:22;8.75;;;3.88;;
22415;SDS011;12204;50.600;4.608;2023-06-22T09:25:27;9.50;;;4.20;;
22415;SDS011;12204;50.600;4.608;2023-06-22T09:30:31;7.82;;;4.13;;
22415;SDS011;12204;50.600;4.608;2023-06-22T09:35:34;9.90;;;4.25;;
22415;SDS011;12204;50.600;4.608;2023-06-22T09:40:39;10.15;;;4.47;;
22415;SDS011;12204;50.600;4.608;2023-06-22T09:45:43;9.02;;;4.30;;
22415;SDS011;12204;50.600;4.608;2023-06-22T09:50:46;10.13;;;4.28;;
22415;SDS011;12204;50.600;4.608;2023-06-22T09:55:51;12.98;;;4.60;;
22415;SDS011;12204;50.600;4.608;2023-06-22T10:00:55;10.32;;;4.70;;
22415;SDS011;12204;50.600;4.608;2023-06-22T10:05:58;13.15;;;5.20;;
22415;SDS011;12204;50.600;4.608;2023-06-22T10:11:03;10.63;;;4.85;;
22415;SDS011;12204;50.600;4.608;2023-06-22T10:16:07;11.45;;;4.88;;
22415;SDS011;12204;50.600;4.608;2023-06-22T10:21:11;13.98;;;6.10;;
22415;SDS011;12204;50.600;4.608;2023-06-22T10:26:16;11.40;;;5.35;;
22415;SDS011;12204;50.600;4.608;2023-06-22T10:31:19;12.57;;;5.88;;
22415;SDS011;12204;50.600;4.608;2023-06-22T10:36:23;13.40;;;6.30;;
22415;SDS011;12204;50.600;4.608;2023-06-22T10:41:28;13.65;;;6.53;;
22415;SDS011;12204;50.600;4.608;2023-06-22T10:46:32;13.20;;;6.32;;
22415;SDS011;12204;50.600;4.608;2023-06-22T10:51:36;10.20;;;6.57;;
22415;SDS011;12204;50.600;4.608;2023-06-22T10:56:40;12.52;;;6.35;;
22415;SDS011;12204;50.600;4.608;2023-06-22T11:01:44;14.50;;;6.00;;
22415;SDS011;12204;50.600;4.608;2023-06-22T11:06:48;15.05;;;6.93;;
22415;SDS011;12204;50.600;4.608;2023-06-22T11:11:53;31.73;;;11.25;;
22415;SDS011;12204;50.600;4.608;2023-06-22T11:17:00;62.63;;;21.15;;
22415;SDS011;12204;50.600;4.608;2023-06-22T11:22:04;75.75;;;23.75;;
22415;SDS011;12204;50.600;4.608;2023-06-22T11:27:09;74.60;;;24.40;;
22415;SDS011;12204;50.600;4.608;2023-06-22T11:32:13;75.00;;;23.92;;
22415;SDS011;12204;50.600;4.608;2023-06-22T11:37:16;66.50;;;23.05;;
22415;SDS011;12204;50.600;4.608;2023-06-22T11:42:21;64.30;;;21.55;;
22415;SDS011;12204;50.600;4.608;2023-06-22T11:47:26;48.80;;;18.40;;
22415;SDS011;12204;50.600;4.608;2023-06-22T11:52:30;42.28;;;16.08;;
22415;SDS011;12204;50.600;4.608;2023-06-22T11:57:35;32.22;;;14.18;;
22415;SDS011;12204;50.600;4.608;2023-06-22T12:02:40;31.92;;;13.15;;
22415;SDS011;12204;50.600;4.608;2023-06-22T12:07:44;25.00;;;12.23;;
22415;SDS011;12204;50.600;4.608;2023-06-22T12:12:49;22.70;;;10.45;;
22415;SDS011;12204;50.600;4.608;2023-06-22T12:17:52;21.70;;;10.70;;
22415;SDS011;12204;50.600;4.608;2023-06-22T12:22:58;20.00;;;9.35;;
22415;SDS011;12204;50.600;4.608;2023-06-22T12:28:03;16.52;;;9.20;;
22415;SDS011;12204;50.600;4.608;2023-06-22T12:33:07;15.00;;;8.30;;
22415;SDS011;12204;50.600;4.608;2023-06-22T12:38:10;15.05;;;8.20;;
22415;SDS011;12204;50.600;4.608;2023-06-22T12:43:15;13.82;;;7.70;;
22415;SDS011;12204;50.600;4.608;2023-06-22T12:48:18;12.30;;;7.38;;
22415;SDS011;12204;50.600;4.608;2023-06-22T12:53:22;13.02;;;7.80;;
22415;SDS011;12204;50.600;4.608;2023-06-22T12:58:30;14.07;;;8.23;;
22415;SDS011;12204;50.600;4.608;2023-06-22T13:03:33;15.02;;;7.95;;
22415;SDS011;12204;50.600;4.608;2023-06-22T13:08:37;14.57;;;7.85;;
22415;SDS011;12204;50.600;4.608;2023-06-22T13:13:45;10.50;;;7.20;;
22415;SDS011;12204;50.600;4.608;2023-06-22T13:18:48;11.73;;;7.35;;
22415;SDS011;12204;50.600;4.608;2023-06-22T13:23:52;11.95;;;7.25;;
22415;SDS011;12204;50.600;4.608;2023-06-22T13:28:57;11.27;;;6.70;;
22415;SDS011;12204;50.600;4.608;2023-06-22T13:34:00;10.75;;;6.38;;
22415;SDS011;12204;50.600;4.608;2023-06-22T13:39:04;10.65;;;6.15;;
22415;SDS011;12204;50.600;4.608;2023-06-22T13:44:09;9.77;;;6.20;;
22415;SDS011;12204;50.600;4.608;2023-06-22T13:49:12;11.13;;;5.60;;
22415;SDS011;12204;50.600;4.608;2023-06-22T13:54:16;8.50;;;5.30;;
22415;SDS011;12204;50.600;4.608;2023-06-22T13:59:24;8.83;;;5.33;;
22415;SDS011;12204;50.600;4.608;2023-06-22T14:04:29;7.75;;;4.80;;
22415;SDS011;12204;50.600;4.608;2023-06-22T14:09:33;10.75;;;5.32;;
22415;SDS011;12204;50.600;4.608;2023-06-22T14:14:37;8.32;;;5.28;;
22415;SDS011;12204;50.600;4.608;2023-06-22T14:19:41;7.55;;;5.22;;
22415;SDS011;12204;50.600;4.608;2023-06-22T14:24:45;10.35;;;5.28;;
22415;SDS011;12204;50.600;4.608;2023-06-22T14:29:50;10.07;;;4.97;;
22415;SDS011;12204;50.600;4.608;2023-06-22T14:34:54;8.23;;;4.65;;
22415;SDS011;12204;50.600;4.608;2023-06-22T14:39:58;7.05;;;4.45;;
22415;SDS011;12204;50.600;4.608;2023-06-22T14:45:03;9.70;;;4.82;;
22415;SDS011;12204;50.600;4.608;2023-06-22T14:50:08;8.10;;;4.50;;
22415;SDS011;12204;50.600;4.608;2023-06-22T14:55:12;8.10;;;4.50;;
22415;SDS011;12204;50.600;4.608;2023-06-22T15:00:19;7.10;;;3.90;;
22415;SDS011;12204;50.600;4.608;2023-06-22T15:05:23;8.48;;;4.57;;
22415;SDS011;12204;50.600;4.608;2023-06-22T15:10:27;6.60;;;4.25;;
22415;SDS011;12204;50.600;4.608;2023-06-22T15:15:32;6.90;;;4.13;;
22415;SDS011;12204;50.600;4.608;2023-06-22T15:20:36;7.50;;;4.10;;
22415;SDS011;12204;50.600;4.608;2023-06-22T15:25:39;6.60;;;4.30;;
22415;SDS011;12204;50.600;4.608;2023-06-22T15:30:44;6.28;;;4.32;;
22415;SDS011;12204;50.600;4.608;2023-06-22T15:35:49;7.17;;;4.50;;
22415;SDS011;12204;50.600;4.608;2023-06-22T15:40:54;6.65;;;4.47;;
22415;SDS011;12204;50.600;4.608;2023-06-22T15:45:58;8.45;;;5.07;;
22415;SDS011;12204;50.600;4.608;2023-06-22T15:51:02;7.40;;;4.82;;
22415;SDS011;12204;50.600;4.608;2023-06-22T15:56:06;8.23;;;4.97;;
22415;SDS011;12204;50.600;4.608;2023-06-22T16:01:12;9.13;;;5.03;;
22415;SDS011;12204;50.600;4.608;2023-06-22T16:06:15;9.15;;;5.03;;
22415;SDS011;12204;50.600;4.608;2023-06-22T16:11:19;8.40;;;4.82;;
22415;SDS011;12204;50.600;4.608;2023-06-22T16:16:24;8.68;;;5.47;;
22415;SDS011;12204;50.600;4.608;2023-06-22T16:21:28;7.47;;;4.97;;
22415;SDS011;12204;50.600;4.608;2023-06-22T16:26:31;8.00;;;5.40;;
22415;SDS011;12204;50.600;4.608;2023-06-22T16:31:43;20.85;;;6.40;;
22415;SDS011;12204;50.600;4.608;2023-06-22T16:36:47;17.15;;;6.68;;
22415;SDS011;12204;50.600;4.608;2023-06-22T16:41:53;13.43;;;7.77;;
22415;SDS011;12204;50.600;4.608;2023-06-22T16:46:58;14.77;;;7.80;;
22415;SDS011;12204;50.600;4.608;2023-06-22T16:52:04;20.73;;;7.77;;
22415;SDS011;12204;50.600;4.608;2023-06-22T16:57:08;14.75;;;8.18;;
22415;SDS011;12204;50.600;4.608;2023-06-22T17:02:15;12.95;;;8.05;;
22415;SDS011;12204;50.600;4.608;2023-06-22T17:07:21;13.32;;;8.75;;
22415;SDS011;12204;50.600;4.608;2023-06-22T17:12:28;13.23;;;7.97;;
22415;SDS011;12204;50.600;4.608;2023-06-22T17:17:32;14.23;;;8.18;;
22415;SDS011;12204;50.600;4.608;2023-06-22T17:22:37;13.30;;;8.13;;
22415;SDS011;12204;50.600;4.608;2023-06-22T17:27:41;15.48;;;7.72;;
22415;SDS011;12204;50.600;4.608;2023-06-22T17:32:46;11.90;;;7.70;;
22415;SDS011;12204;50.600;4.608;2023-06-22T17:37:51;10.88;;;7.47;;
22415;SDS011;12204;50.600;4.608;2023-06-22T17:43:01;11.65;;;7.30;;
22415;SDS011;12204;50.600;4.608;2023-06-22T17:48:08;10.82;;;7.30;;
22415;SDS011;12204;50.600;4.608;2023-06-22T17:53:13;13.05;;;8.73;;
22415;SDS011;12204;50.600;4.608;2023-06-22T17:58:16;11.18;;;8.07;;
22415;SDS011;12204;50.600;4.608;2023-06-22T18:03:24;12.65;;;7.97;;
22415;SDS011;12204;50.600;4.608;2023-06-22T18:08:28;12.23;;;7.95;;
22415;SDS011;12204;50.600;4.608;2023-06-22T18:13:32;14.25;;;8.00;;
22415;SDS011;12204;50.600;4.608;2023-06-22T18:18:38;13.00;;;7.75;;
22415;SDS011;12204;50.600;4.608;2023-06-22T18:23:42;11.60;;;7.57;;
22415;SDS011;12204;50.600;4.608;2023-06-22T18:28:49;10.23;;;7.00;;
22415;SDS011;12204;50.600;4.608;2023-06-22T18:33:56;11.88;;;7.60;;
22415;SDS011;12204;50.600;4.608;2023-06-22T18:39:01;12.50;;;7.28;;
22415;SDS011;12204;50.600;4.608;2023-06-22T18:44:10;12.13;;;6.88;;
22415;SDS011;12204;50.600;4.608;2023-06-22T18:49:23;11.32;;;6.78;;
22415;SDS011;12204;50.600;4.608;2023-06-22T18:54:32;11.85;;;7.50;;
22415;SDS011;12204;50.600;4.608;2023-06-22T18:59:45;10.27;;;6.70;;
22415;SDS011;12204;50.600;4.608;2023-06-22T19:04:53;12.02;;;6.68;;
22415;SDS011;12204;50.600;4.608;2023-06-22T19:10:21;12.65;;;6.30;;
22415;SDS011;12204;50.600;4.608;2023-06-22T19:15:30;10.90;;;7.03;;
22415;SDS011;12204;50.600;4.608;2023-06-22T19:20:36;11.32;;;6.30;;
22415;SDS011;12204;50.600;4.608;2023-06-22T19:25:41;13.48;;;6.57;;
22415;SDS011;12204;50.600;4.608;2023-06-22T19:30:48;11.40;;;6.70;;
22415;SDS011;12204;50.600;4.608;2023-06-22T19:35:59;10.07;;;6.90;;
22415;SDS011;12204;50.600;4.608;2023-06-22T19:41:06;11.05;;;6.80;;
22415;SDS011;12204;50.600;4.608;2023-06-22T19:46:10;8.57;;;5.68;;
22415;SDS011;12204;50.600;4.608;2023-06-22T19:51:16;11.73;;;8.30;;
22415;SDS011;12204;50.600;4.608;2023-06-22T19:56:20;12.35;;;9.05;;
22415;SDS011;12204;50.600;4.608;2023-06-22T20:01:23;16.70;;;9.90;;
22415;SDS011;12204;50.600;4.608;2023-06-22T20:06:28;14.27;;;9.07;;
22415;SDS011;12204;50.600;4.608;2023-06-22T20:11:33;14.23;;;9.50;;
22415;SDS011;12204;50.600;4.608;2023-06-22T20:16:45;14.98;;;10.02;;
22415;SDS011;12204;50.600;4.608;2023-06-22T20:27:09;18.85;;;12.25;;
22415;SDS011;12204;50.600;4.608;2023-06-22T20:32:14;19.42;;;14.25;;
22415;SDS011;12204;50.600;4.608;2023-06-22T20:37:19;21.02;;;15.52;;
22415;SDS011;12204;50.600;4.608;2023-06-22T20:42:23;24.08;;;15.52;;
22415;SDS011;12204;50.600;4.608;2023-06-22T20:47:27;22.70;;;16.55;;
22415;SDS011;12204;50.600;4.608;2023-06-22T20:52:31;21.05;;;13.27;;
22415;SDS011;12204;50.600;4.608;2023-06-22T20:57:35;17.00;;;11.18;;
22415;SDS011;12204;50.600;4.608;2023-06-22T21:02:39;17.67;;;10.25;;
22415;SDS011;12204;50.600;4.608;2023-06-22T21:07:44;15.18;;;8.63;;
22415;SDS011;12204;50.600;4.608;2023-06-22T21:12:48;15.18;;;7.70;;
22415;SDS011;12204;50.600;4.608;2023-06-22T21:17:52;13.45;;;7.10;;
22415;SDS011;12204;50.600;4.608;2023-06-22T21:22:57;11.77;;;6.85;;
22415;SDS011;12204;50.600;4.608;2023-06-22T21:28:00;10.38;;;6.10;;
22415;SDS011;12204;50.600;4.608;2023-06-22T21:33:04;10.00;;;5.93;;
22415;SDS011;12204;50.600;4.608;2023-06-22T21:38:09;11.65;;;5.93;;
22415;SDS011;12204;50.600;4.608;2023-06-22T21:43:12;9.65;;;5.70;;
22415;SDS011;12204;50.600;4.608;2023-06-22T21:48:16;9.85;;;5.50;;
22415;SDS011;12204;50.600;4.608;2023-06-22T21:53:21;9.52;;;5.40;;
22415;SDS011;12204;50.600;4.608;2023-06-22T21:58:27;9.18;;;5.40;;
22415;SDS011;12204;50.600;4.608;2023-06-22T22:03:31;10.38;;;5.82;;
22415;SDS011;12204;50.600;4.608;2023-06-22T22:08:36;11.07;;;5.43;;
22415;SDS011;12204;50.600;4.608;2023-06-22T22:13:39;15.98;;;6.28;;
22415;SDS011;12204;50.600;4.608;2023-06-22T22:18:43;18.10;;;7.20;;
22415;SDS011;12204;50.600;4.608;2023-06-22T22:23:49;19.40;;;8.52;;
22415;SDS011;12204;50.600;4.608;2023-06-22T22:28:53;17.20;;;8.30;;
22415;SDS011;12204;50.600;4.608;2023-06-22T22:33:56;16.17;;;8.65;;
22415;SDS011;12204;50.600;4.608;2023-06-22T22:39:01;15.73;;;8.77;;
22415;SDS011;12204;50.600;4.608;2023-06-22T22:44:06;20.27;;;9.67;;
22415;SDS011;12204;50.600;4.608;2023-06-22T22:49:09;16.15;;;9.00;;
22415;SDS011;12204;50.600;4.608;2023-06-22T22:54:14;15.82;;;8.73;;
22415;SDS011;12204;50.600;4.608;2023-06-22T22:59:19;17.30;;;9.53;;
22415;SDS011;12204;50.600;4.608;2023-06-22T23:04:23;15.68;;;8.48;;
22415;SDS011;12204;50.600;4.608;2023-06-22T23:09:28;15.82;;;8.75;;
22415;SDS011;12204;50.600;4.608;2023-06-22T23:14:31;16.45;;;8.70;;
22415;SDS011;12204;50.600;4.608;2023-06-22T23:19:35;14.45;;;8.75;;
22415;SDS011;12204;50.600;4.608;2023-06-22T23:24:39;15.43;;;9.00;;
22415;SDS011;12204;50.600;4.608;2023-06-22T23:29:43;18.95;;;8.32;;
22415;SDS011;12204;50.600;4.608;2023-06-22T23:34:46;14.75;;;8.90;;
22415;SDS011;12204;50.600;4.608;2023-06-22T23:39:51;15.05;;;8.05;;
22415;SDS011;12204;50.600;4.608;2023-06-22T23:44:55;17.08;;;8.73;;
22415;SDS011;12204;50.600;4.608;2023-06-22T23:49:58;16.48;;;8.63;;
22415;SDS011;12204;50.600;4.608;2023-06-22T23:55:03;15.23;;;9.00;;
